sensor_id;sensor_type;location;lat;lon;timestamp;temperature;humidity
39237;DHT22;36851;49.996;8.268;2022-07-18T00:00:59;27.00;82.90
39237;DHT22;36851;49.996;8.268;2022-07-18T00:03:26;27.00;83.10
39237;DHT22;36851;49.996;8.268;2022-07-18T00:05:54;27.00;82.90
39237;DHT22;36851;49.996;8.268;2022-07-18T00:08:21;27.00;82.90
39237;DHT22;36851;49.996;8.268;2022-07-18T00:10:48;27.00;82.90
39237;DHT22;36851;49.996;8.268;2022-07-18T00:13:16;27.00;82.90
39237;DHT22;36851;49.996;8.268;2022-07-18T00:15:43;27.00;82.50
39237;DHT22;36851;49.996;8.268;2022-07-18T00:18:10;27.00;83.10
39237;DHT22;36851;49.996;8.268;2022-07-18T00:20:38;27.00;83.00
39237;DHT22;36851;49.996;8.268;2022-07-18T00:23:05;27.00;82.90
39237;DHT22;36851;49.996;8.268;2022-07-18T00:25:33;26.90;83.00
39237;DHT22;36851;49.996;8.268;2022-07-18T00:28:00;26.90;82.90
39237;DHT22;36851;49.996;8.268;2022-07-18T00:30:27;26.90;82.80
39237;DHT22;36851;49.996;8.268;2022-07-18T00:32:54;26.90;82.70
39237;DHT22;36851;49.996;8.268;2022-07-18T00:35:22;26.90;82.80
39237;DHT22;36851;49.996;8.268;2022-07-18T00:37:49;26.90;82.70
39237;DHT22;36851;49.996;8.268;2022-07-18T00:40:16;26.90;82.60
39237;DHT22;36851;49.996;8.268;2022-07-18T00:42:44;26.90;82.60
39237;DHT22;36851;49.996;8.268;2022-07-18T00:45:12;26.90;82.60
39237;DHT22;36851;49.996;8.268;2022-07-18T00:47:42;26.90;82.60
39237;DHT22;36851;49.996;8.268;2022-07-18T00:50:09;26.90;82.60
39237;DHT22;36851;49.996;8.268;2022-07-18T00:52:37;26.90;82.60
39237;DHT22;36851;49.996;8.268;2022-07-18T00:55:05;26.90;82.60
39237;DHT22;36851;49.996;8.268;2022-07-18T00:57:32;26.90;82.60
39237;DHT22;36851;49.996;8.268;2022-07-18T01:00:00;26.90;82.60
39237;DHT22;36851;49.996;8.268;2022-07-18T01:02:46;26.90;82.50
39237;DHT22;36851;49.996;8.268;2022-07-18T01:05:14;26.90;82.60
39237;DHT22;36851;49.996;8.268;2022-07-18T01:07:41;26.80;82.60
39237;DHT22;36851;49.996;8.268;2022-07-18T01:10:09;26.90;82.70
39237;DHT22;36851;49.996;8.268;2022-07-18T01:12:36;26.80;82.60
39237;DHT22;36851;49.996;8.268;2022-07-18T01:15:05;26.90;82.60
39237;DHT22;36851;49.996;8.268;2022-07-18T01:17:32;26.90;82.60
39237;DHT22;36851;49.996;8.268;2022-07-18T01:20:02;26.80;82.70
39237;DHT22;36851;49.996;8.268;2022-07-18T01:22:31;26.80;82.70
39237;DHT22;36851;49.996;8.268;2022-07-18T01:24:58;26.90;82.80
39237;DHT22;36851;49.996;8.268;2022-07-18T01:27:26;26.80;82.60
39237;DHT22;36851;49.996;8.268;2022-07-18T01:29:54;26.80;82.70
39237;DHT22;36851;49.996;8.268;2022-07-18T01:32:21;26.80;82.60
39237;DHT22;36851;49.996;8.268;2022-07-18T01:34:50;26.80;82.70
39237;DHT22;36851;49.996;8.268;2022-07-18T01:37:17;26.80;82.70
39237;DHT22;36851;49.996;8.268;2022-07-18T01:39:45;26.80;83.40
39237;DHT22;36851;49.996;8.268;2022-07-18T01:42:13;26.80;82.70
39237;DHT22;36851;49.996;8.268;2022-07-18T01:44:42;26.80;82.70
39237;DHT22;36851;49.996;8.268;2022-07-18T01:47:11;26.80;82.60
39237;DHT22;36851;49.996;8.268;2022-07-18T01:49:38;26.80;82.60
39237;DHT22;36851;49.996;8.268;2022-07-18T01:52:07;26.80;82.70
39237;DHT22;36851;49.996;8.268;2022-07-18T01:54:36;26.80;82.70
39237;DHT22;36851;49.996;8.268;2022-07-18T01:57:05;26.80;83.10
39237;DHT22;36851;49.996;8.268;2022-07-18T01:59:33;26.80;83.20
39237;DHT22;36851;49.996;8.268;2022-07-18T02:02:03;26.70;83.30
39237;DHT22;36851;49.996;8.268;2022-07-18T02:04:35;26.80;83.50
39237;DHT22;36851;49.996;8.268;2022-07-18T02:07:21;26.70;83.60
39237;DHT22;36851;49.996;8.268;2022-07-18T02:09:49;26.80;83.90
39237;DHT22;36851;49.996;8.268;2022-07-18T02:12:16;26.70;83.90
39237;DHT22;36851;49.996;8.268;2022-07-18T02:14:44;26.70;84.00
39237;DHT22;36851;49.996;8.268;2022-07-18T02:17:11;26.80;84.20
39237;DHT22;36851;49.996;8.268;2022-07-18T02:19:39;26.70;84.10
39237;DHT22;36851;49.996;8.268;2022-07-18T02:22:06;26.70;84.20
39237;DHT22;36851;49.996;8.268;2022-07-18T02:24:33;26.70;84.30
39237;DHT22;36851;49.996;8.268;2022-07-18T02:27:01;26.70;84.40
39237;DHT22;36851;49.996;8.268;2022-07-18T02:29:28;26.70;84.30
39237;DHT22;36851;49.996;8.268;2022-07-18T02:31:56;26.70;84.20
39237;DHT22;36851;49.996;8.268;2022-07-18T02:34:23;26.70;84.10
39237;DHT22;36851;49.996;8.268;2022-07-18T02:36:51;26.70;84.10
39237;DHT22;36851;49.996;8.268;2022-07-18T02:39:19;26.70;84.00
39237;DHT22;36851;49.996;8.268;2022-07-18T02:41:47;26.70;84.00
39237;DHT22;36851;49.996;8.268;2022-07-18T02:44:14;26.70;84.00
39237;DHT22;36851;49.996;8.268;2022-07-18T02:46:42;26.70;84.00
39237;DHT22;36851;49.996;8.268;2022-07-18T02:49:10;26.70;84.10
39237;DHT22;36851;49.996;8.268;2022-07-18T02:51:37;26.60;84.00
39237;DHT22;36851;49.996;8.268;2022-07-18T02:54:04;26.60;84.10
39237;DHT22;36851;49.996;8.268;2022-07-18T02:56:32;26.60;84.00
39237;DHT22;36851;49.996;8.268;2022-07-18T02:58:59;26.70;84.10
39237;DHT22;36851;49.996;8.268;2022-07-18T03:01:27;26.70;84.10
39237;DHT22;36851;49.996;8.268;2022-07-18T03:03:54;26.60;83.90
39237;DHT22;36851;49.996;8.268;2022-07-18T03:06:21;26.60;84.10
39237;DHT22;36851;49.996;8.268;2022-07-18T03:08:49;26.60;84.10
39237;DHT22;36851;49.996;8.268;2022-07-18T03:11:16;26.60;84.10
39237;DHT22;36851;49.996;8.268;2022-07-18T03:13:43;26.60;84.10
39237;DHT22;36851;49.996;8.268;2022-07-18T03:16:11;26.60;84.20
39237;DHT22;36851;49.996;8.268;2022-07-18T03:18:38;26.60;84.30
39237;DHT22;36851;49.996;8.268;2022-07-18T03:21:05;26.60;84.20
39237;DHT22;36851;49.996;8.268;2022-07-18T03:23:33;26.60;84.20
39237;DHT22;36851;49.996;8.268;2022-07-18T03:26:00;26.60;84.20
39237;DHT22;36851;49.996;8.268;2022-07-18T03:28:27;26.60;84.30
39237;DHT22;36851;49.996;8.268;2022-07-18T03:30:54;26.60;84.30
39237;DHT22;36851;49.996;8.268;2022-07-18T03:33:26;26.60;84.30
39237;DHT22;36851;49.996;8.268;2022-07-18T03:35:53;26.60;84.40
39237;DHT22;36851;49.996;8.268;2022-07-18T03:38:21;26.60;84.40
39237;DHT22;36851;49.996;8.268;2022-07-18T03:40:48;26.60;84.30
39237;DHT22;36851;49.996;8.268;2022-07-18T03:43:16;26.60;84.30
39237;DHT22;36851;49.996;8.268;2022-07-18T03:45:43;26.60;84.20
39237;DHT22;36851;49.996;8.268;2022-07-18T03:48:12;26.60;84.20
39237;DHT22;36851;49.996;8.268;2022-07-18T03:50:40;26.60;84.40
39237;DHT22;36851;49.996;8.268;2022-07-18T03:53:07;26.60;84.50
39237;DHT22;36851;49.996;8.268;2022-07-18T03:55:35;26.60;84.40
39237;DHT22;36851;49.996;8.268;2022-07-18T03:58:02;26.60;84.40
39237;DHT22;36851;49.996;8.268;2022-07-18T04:00:29;26.60;84.40
39237;DHT22;36851;49.996;8.268;2022-07-18T04:02:57;26.60;84.40
39237;DHT22;36851;49.996;8.268;2022-07-18T04:05:31;26.60;84.40
39237;DHT22;36851;49.996;8.268;2022-07-18T04:07:59;26.60;84.40
39237;DHT22;36851;49.996;8.268;2022-07-18T04:10:26;26.60;84.40
39237;DHT22;36851;49.996;8.268;2022-07-18T04:12:54;26.50;84.30
39237;DHT22;36851;49.996;8.268;2022-07-18T04:15:23;26.50;84.40
39237;DHT22;36851;49.996;8.268;2022-07-18T04:17:51;26.60;84.50
39237;DHT22;36851;49.996;8.268;2022-07-18T04:20:20;26.50;84.40
39237;DHT22;36851;49.996;8.268;2022-07-18T04:22:50;26.50;85.20
39237;DHT22;36851;49.996;8.268;2022-07-18T04:25:19;26.50;84.80
39237;DHT22;36851;49.996;8.268;2022-07-18T04:27:47;26.50;84.60
39237;DHT22;36851;49.996;8.268;2022-07-18T04:30:18;26.50;84.60
39237;DHT22;36851;49.996;8.268;2022-07-18T04:32:46;26.50;84.50
39237;DHT22;36851;49.996;8.268;2022-07-18T04:35:20;26.50;84.50
39237;DHT22;36851;49.996;8.268;2022-07-18T04:37:49;26.50;84.50
39237;DHT22;36851;49.996;8.268;2022-07-18T04:40:17;26.50;84.60
39237;DHT22;36851;49.996;8.268;2022-07-18T04:42:45;26.50;85.20
39237;DHT22;36851;49.996;8.268;2022-07-18T04:45:13;26.50;84.50
39237;DHT22;36851;49.996;8.268;2022-07-18T04:47:40;26.50;84.60
39237;DHT22;36851;49.996;8.268;2022-07-18T04:50:08;26.50;84.60
39237;DHT22;36851;49.996;8.268;2022-07-18T04:52:40;26.50;84.50
39237;DHT22;36851;49.996;8.268;2022-07-18T04:55:08;26.50;84.50
39237;DHT22;36851;49.996;8.268;2022-07-18T04:57:37;26.50;84.70
39237;DHT22;36851;49.996;8.268;2022-07-18T05:00:11;26.60;84.60
39237;DHT22;36851;49.996;8.268;2022-07-18T05:02:43;26.50;84.50
39237;DHT22;36851;49.996;8.268;2022-07-18T05:05:12;26.60;84.60
39237;DHT22;36851;49.996;8.268;2022-07-18T05:07:41;26.60;84.60
39237;DHT22;36851;49.996;8.268;2022-07-18T05:10:10;26.50;84.50
39237;DHT22;36851;49.996;8.268;2022-07-18T05:12:40;26.50;84.50
39237;DHT22;36851;49.996;8.268;2022-07-18T05:15:10;26.60;84.60
39237;DHT22;36851;49.996;8.268;2022-07-18T05:17:39;26.60;84.60
39237;DHT22;36851;49.996;8.268;2022-07-18T05:20:08;26.50;84.50
39237;DHT22;36851;49.996;8.268;2022-07-18T05:22:37;26.50;84.50
39237;DHT22;36851;49.996;8.268;2022-07-18T05:25:06;26.50;84.60
39237;DHT22;36851;49.996;8.268;2022-07-18T05:27:34;26.60;84.70
39237;DHT22;36851;49.996;8.268;2022-07-18T05:30:03;26.60;84.80
39237;DHT22;36851;49.996;8.268;2022-07-18T05:32:31;26.60;84.90
39237;DHT22;36851;49.996;8.268;2022-07-18T05:34:58;26.50;84.80
39237;DHT22;36851;49.996;8.268;2022-07-18T05:37:26;26.60;85.40
39237;DHT22;36851;49.996;8.268;2022-07-18T05:39:53;26.60;84.80
39237;DHT22;36851;49.996;8.268;2022-07-18T05:42:20;26.60;84.80
39237;DHT22;36851;49.996;8.268;2022-07-18T05:45:08;26.60;84.90
39237;DHT22;36851;49.996;8.268;2022-07-18T05:47:36;26.60;84.90
39237;DHT22;36851;49.996;8.268;2022-07-18T05:50:06;26.60;84.80
39237;DHT22;36851;49.996;8.268;2022-07-18T05:52:34;26.60;84.70
39237;DHT22;36851;49.996;8.268;2022-07-18T05:55:02;26.50;84.60
39237;DHT22;36851;49.996;8.268;2022-07-18T05:57:29;26.50;84.50
39237;DHT22;36851;49.996;8.268;2022-07-18T05:59:56;26.50;84.40
39237;DHT22;36851;49.996;8.268;2022-07-18T06:02:24;26.30;74.30
39237;DHT22;36851;49.996;8.268;2022-07-18T06:04:51;26.10;72.70
39237;DHT22;36851;49.996;8.268;2022-07-18T06:07:38;26.00;73.20
39237;DHT22;36851;49.996;8.268;2022-07-18T06:10:06;26.10;79.30
39237;DHT22;36851;49.996;8.268;2022-07-18T06:12:34;26.20;79.20
39237;DHT22;36851;49.996;8.268;2022-07-18T06:15:02;26.30;79.10
39237;DHT22;36851;49.996;8.268;2022-07-18T06:17:29;26.40;79.20
39237;DHT22;36851;49.996;8.268;2022-07-18T06:19:56;26.40;79.10
39237;DHT22;36851;49.996;8.268;2022-07-18T06:22:24;26.40;79.50
39237;DHT22;36851;49.996;8.268;2022-07-18T06:24:52;26.50;80.00
39237;DHT22;36851;49.996;8.268;2022-07-18T06:27:19;26.50;80.40
39237;DHT22;36851;49.996;8.268;2022-07-18T06:29:46;26.60;82.50
39237;DHT22;36851;49.996;8.268;2022-07-18T06:32:14;26.60;84.40
39237;DHT22;36851;49.996;8.268;2022-07-18T06:34:41;26.60;85.10
39237;DHT22;36851;49.996;8.268;2022-07-18T06:37:08;26.70;84.90
39237;DHT22;36851;49.996;8.268;2022-07-18T06:39:36;26.70;85.50
39237;DHT22;36851;49.996;8.268;2022-07-18T06:42:03;26.70;86.70
39237;DHT22;36851;49.996;8.268;2022-07-18T06:44:32;26.80;87.40
39237;DHT22;36851;49.996;8.268;2022-07-18T06:47:00;26.80;88.30
39237;DHT22;36851;49.996;8.268;2022-07-18T06:49:27;26.70;88.30
39237;DHT22;36851;49.996;8.268;2022-07-18T06:51:54;26.70;87.60
39237;DHT22;36851;49.996;8.268;2022-07-18T06:54:29;26.70;87.70
39237;DHT22;36851;49.996;8.268;2022-07-18T06:56:57;26.70;87.90
39237;DHT22;36851;49.996;8.268;2022-07-18T06:59:26;26.70;89.60
39237;DHT22;36851;49.996;8.268;2022-07-18T07:01:53;26.70;89.90
39237;DHT22;36851;49.996;8.268;2022-07-18T07:04:21;26.70;89.10
39237;DHT22;36851;49.996;8.268;2022-07-18T07:06:48;26.70;89.70
39237;DHT22;36851;49.996;8.268;2022-07-18T07:09:15;26.70;88.90
39237;DHT22;36851;49.996;8.268;2022-07-18T07:11:42;26.70;89.20
39237;DHT22;36851;49.996;8.268;2022-07-18T07:14:10;26.70;88.30
39237;DHT22;36851;49.996;8.268;2022-07-18T07:16:37;26.70;88.00
39237;DHT22;36851;49.996;8.268;2022-07-18T07:19:05;26.70;87.90
39237;DHT22;36851;49.996;8.268;2022-07-18T07:21:32;26.70;88.40
39237;DHT22;36851;49.996;8.268;2022-07-18T07:24:00;26.70;88.30
39237;DHT22;36851;49.996;8.268;2022-07-18T07:26:27;26.70;88.60
39237;DHT22;36851;49.996;8.268;2022-07-18T07:28:54;26.70;88.60
39237;DHT22;36851;49.996;8.268;2022-07-18T07:31:21;26.70;88.80
39237;DHT22;36851;49.996;8.268;2022-07-18T07:33:49;26.70;89.00
39237;DHT22;36851;49.996;8.268;2022-07-18T07:36:16;26.70;89.50
39237;DHT22;36851;49.996;8.268;2022-07-18T07:38:44;26.70;87.80
39237;DHT22;36851;49.996;8.268;2022-07-18T07:41:11;26.70;89.20
39237;DHT22;36851;49.996;8.268;2022-07-18T07:43:40;26.70;88.80
39237;DHT22;36851;49.996;8.268;2022-07-18T07:46:07;26.60;87.90
39237;DHT22;36851;49.996;8.268;2022-07-18T07:48:35;26.60;86.10
39237;DHT22;36851;49.996;8.268;2022-07-18T07:51:02;26.60;84.70
39237;DHT22;36851;49.996;8.268;2022-07-18T07:53:31;26.50;83.00
39237;DHT22;36851;49.996;8.268;2022-07-18T07:55:58;26.50;79.50
39237;DHT22;36851;49.996;8.268;2022-07-18T07:58:25;26.60;79.20
39237;DHT22;36851;49.996;8.268;2022-07-18T08:00:53;26.60;79.70
39237;DHT22;36851;49.996;8.268;2022-07-18T08:03:20;26.60;80.00
39237;DHT22;36851;49.996;8.268;2022-07-18T08:05:49;26.60;80.10
39237;DHT22;36851;49.996;8.268;2022-07-18T08:08:18;26.60;80.20
39237;DHT22;36851;49.996;8.268;2022-07-18T08:10:45;26.60;81.10
39237;DHT22;36851;49.996;8.268;2022-07-18T08:13:14;26.60;81.60
39237;DHT22;36851;49.996;8.268;2022-07-18T08:15:42;26.60;81.70
39237;DHT22;36851;49.996;8.268;2022-07-18T08:18:09;26.60;81.70
39237;DHT22;36851;49.996;8.268;2022-07-18T08:20:36;26.70;81.90
39237;DHT22;36851;49.996;8.268;2022-07-18T08:23:06;26.70;82.60
39237;DHT22;36851;49.996;8.268;2022-07-18T08:25:39;26.70;83.00
39237;DHT22;36851;49.996;8.268;2022-07-18T08:28:07;26.80;82.40
39237;DHT22;36851;49.996;8.268;2022-07-18T08:30:35;26.70;82.20
39237;DHT22;36851;49.996;8.268;2022-07-18T08:33:05;26.80;82.60
39237;DHT22;36851;49.996;8.268;2022-07-18T08:35:32;26.80;83.20
39237;DHT22;36851;49.996;8.268;2022-07-18T08:38:01;26.80;83.40
39237;DHT22;36851;49.996;8.268;2022-07-18T08:40:28;26.80;83.10
39237;DHT22;36851;49.996;8.268;2022-07-18T08:42:57;26.70;83.00
39237;DHT22;36851;49.996;8.268;2022-07-18T08:45:46;26.70;82.80
39237;DHT22;36851;49.996;8.268;2022-07-18T08:48:17;26.70;82.20
39237;DHT22;36851;49.996;8.268;2022-07-18T08:50:45;26.60;81.50
39237;DHT22;36851;49.996;8.268;2022-07-18T08:53:15;26.60;80.80
39237;DHT22;36851;49.996;8.268;2022-07-18T08:55:43;26.60;81.40
39237;DHT22;36851;49.996;8.268;2022-07-18T08:58:11;26.60;80.70
39237;DHT22;36851;49.996;8.268;2022-07-18T09:00:59;26.60;80.10
39237;DHT22;36851;49.996;8.268;2022-07-18T09:03:27;26.70;79.70
39237;DHT22;36851;49.996;8.268;2022-07-18T09:06:04;26.70;79.50
39237;DHT22;36851;49.996;8.268;2022-07-18T09:08:32;26.70;79.00
39237;DHT22;36851;49.996;8.268;2022-07-18T09:11:01;26.70;79.20
39237;DHT22;36851;49.996;8.268;2022-07-18T09:13:38;26.80;79.00
39237;DHT22;36851;49.996;8.268;2022-07-18T09:16:09;26.70;79.10
39237;DHT22;36851;49.996;8.268;2022-07-18T09:18:39;26.70;79.20
39237;DHT22;36851;49.996;8.268;2022-07-18T09:21:13;26.70;79.20
39237;DHT22;36851;49.996;8.268;2022-07-18T09:23:43;26.70;79.20
39237;DHT22;36851;49.996;8.268;2022-07-18T09:26:11;26.70;79.20
39237;DHT22;36851;49.996;8.268;2022-07-18T09:28:50;26.80;79.30
39237;DHT22;36851;49.996;8.268;2022-07-18T09:31:37;26.80;79.60
39237;DHT22;36851;49.996;8.268;2022-07-18T09:34:05;26.80;80.00
39237;DHT22;36851;49.996;8.268;2022-07-18T09:36:33;26.80;80.40
39237;DHT22;36851;49.996;8.268;2022-07-18T09:39:18;26.80;80.60
39237;DHT22;36851;49.996;8.268;2022-07-18T09:41:46;26.70;80.30
39237;DHT22;36851;49.996;8.268;2022-07-18T09:44:15;26.70;80.20
39237;DHT22;36851;49.996;8.268;2022-07-18T09:47:02;26.70;79.70
39237;DHT22;36851;49.996;8.268;2022-07-18T09:49:31;26.70;79.70
39237;DHT22;36851;49.996;8.268;2022-07-18T09:52:03;26.60;79.40
39237;DHT22;36851;49.996;8.268;2022-07-18T09:54:41;26.60;79.40
39237;DHT22;36851;49.996;8.268;2022-07-18T09:57:10;26.60;79.20
39237;DHT22;36851;49.996;8.268;2022-07-18T09:59:49;26.70;79.10
39237;DHT22;36851;49.996;8.268;2022-07-18T10:02:19;26.70;79.10
39237;DHT22;36851;49.996;8.268;2022-07-18T10:04:47;26.70;79.20
39237;DHT22;36851;49.996;8.268;2022-07-18T10:07:15;26.70;79.10
39237;DHT22;36851;49.996;8.268;2022-07-18T10:09:45;26.70;79.20
39237;DHT22;36851;49.996;8.268;2022-07-18T10:12:15;26.70;79.20
39237;DHT22;36851;49.996;8.268;2022-07-18T10:14:44;26.80;79.40
39237;DHT22;36851;49.996;8.268;2022-07-18T10:17:11;26.70;79.40
39237;DHT22;36851;49.996;8.268;2022-07-18T10:19:39;26.70;79.50
39237;DHT22;36851;49.996;8.268;2022-07-18T10:22:07;26.70;79.60
39237;DHT22;36851;49.996;8.268;2022-07-18T10:24:39;26.80;79.70
39237;DHT22;36851;49.996;8.268;2022-07-18T10:27:17;26.80;79.80
39237;DHT22;36851;49.996;8.268;2022-07-18T10:30:10;26.70;79.80
39237;DHT22;36851;49.996;8.268;2022-07-18T10:32:38;26.70;79.90
39237;DHT22;36851;49.996;8.268;2022-07-18T10:35:06;26.80;80.50
39237;DHT22;36851;49.996;8.268;2022-07-18T10:37:34;26.70;80.00
39237;DHT22;36851;49.996;8.268;2022-07-18T10:45:43;26.80;80.20
39237;DHT22;36851;49.996;8.268;2022-07-18T10:51:08;26.70;80.10
39237;DHT22;36851;49.996;8.268;2022-07-18T10:59:18;26.80;80.40
39237;DHT22;36851;49.996;8.268;2022-07-18T11:01:52;26.80;80.40
39237;DHT22;36851;49.996;8.268;2022-07-18T11:04:34;26.80;80.50
39237;DHT22;36851;49.996;8.268;2022-07-18T11:07:17;26.80;80.50
39237;DHT22;36851;49.996;8.268;2022-07-18T11:09:46;26.80;80.50
39237;DHT22;36851;49.996;8.268;2022-07-18T11:12:29;26.80;80.50
39237;DHT22;36851;49.996;8.268;2022-07-18T11:15:06;26.80;80.50
39237;DHT22;36851;49.996;8.268;2022-07-18T11:18:02;26.70;80.40
39237;DHT22;36851;49.996;8.268;2022-07-18T11:23:03;26.80;80.60
39237;DHT22;36851;49.996;8.268;2022-07-18T11:25:31;26.80;80.60
39237;DHT22;36851;49.996;8.268;2022-07-18T11:28:19;26.80;80.50
39237;DHT22;36851;49.996;8.268;2022-07-18T11:31:07;26.80;80.60
39237;DHT22;36851;49.996;8.268;2022-07-18T11:33:45;26.80;80.60
39237;DHT22;36851;49.996;8.268;2022-07-18T11:36:14;26.80;80.70
39237;DHT22;36851;49.996;8.268;2022-07-18T11:39:03;26.80;80.60
39237;DHT22;36851;49.996;8.268;2022-07-18T11:41:31;26.80;80.60
39237;DHT22;36851;49.996;8.268;2022-07-18T11:43:59;26.80;80.60
39237;DHT22;36851;49.996;8.268;2022-07-18T11:46:27;26.80;80.50
39237;DHT22;36851;49.996;8.268;2022-07-18T11:49:04;26.80;80.60
39237;DHT22;36851;49.996;8.268;2022-07-18T11:51:49;26.80;80.60
39237;DHT22;36851;49.996;8.268;2022-07-18T11:54:23;26.80;80.60
39237;DHT22;36851;49.996;8.268;2022-07-18T11:56:53;26.80;80.50
39237;DHT22;36851;49.996;8.268;2022-07-18T11:59:22;26.80;80.50
39237;DHT22;36851;49.996;8.268;2022-07-18T12:01:50;26.80;80.50
39237;DHT22;36851;49.996;8.268;2022-07-18T12:04:22;26.80;80.50
39237;DHT22;36851;49.996;8.268;2022-07-18T12:07:18;26.80;80.50
39237;DHT22;36851;49.996;8.268;2022-07-18T12:09:50;26.80;80.50
39237;DHT22;36851;49.996;8.268;2022-07-18T12:12:21;26.80;80.40
39237;DHT22;36851;49.996;8.268;2022-07-18T12:15:00;26.80;80.50
39237;DHT22;36851;49.996;8.268;2022-07-18T12:17:30;26.80;80.50
39237;DHT22;36851;49.996;8.268;2022-07-18T12:20:16;26.80;80.40
39237;DHT22;36851;49.996;8.268;2022-07-18T12:23:03;26.80;80.40
39237;DHT22;36851;49.996;8.268;2022-07-18T12:25:49;26.80;80.40
39237;DHT22;36851;49.996;8.268;2022-07-18T12:28:19;26.90;80.40
39237;DHT22;36851;49.996;8.268;2022-07-18T12:30:48;26.90;80.40
39237;DHT22;36851;49.996;8.268;2022-07-18T12:33:16;26.90;80.40
39237;DHT22;36851;49.996;8.268;2022-07-18T12:35:43;26.80;80.30
39237;DHT22;36851;49.996;8.268;2022-07-18T12:38:15;26.90;80.40
39237;DHT22;36851;49.996;8.268;2022-07-18T12:40:54;26.90;80.40
39237;DHT22;36851;49.996;8.268;2022-07-18T12:45:54;26.90;80.40
39237;DHT22;36851;49.996;8.268;2022-07-18T12:48:22;26.90;80.30
39237;DHT22;36851;49.996;8.268;2022-07-18T12:53:25;26.90;80.30
39237;DHT22;36851;49.996;8.268;2022-07-18T12:55:53;26.90;80.20
39237;DHT22;36851;49.996;8.268;2022-07-18T12:58:21;26.90;80.20
39237;DHT22;36851;49.996;8.268;2022-07-18T13:00:49;26.90;80.20
39237;DHT22;36851;49.996;8.268;2022-07-18T13:03:17;27.00;80.20
39237;DHT22;36851;49.996;8.268;2022-07-18T13:05:44;27.00;80.30
39237;DHT22;36851;49.996;8.268;2022-07-18T13:08:12;27.00;80.30
39237;DHT22;36851;49.996;8.268;2022-07-18T13:10:40;27.00;80.30
39237;DHT22;36851;49.996;8.268;2022-07-18T13:13:08;27.00;80.30
39237;DHT22;36851;49.996;8.268;2022-07-18T13:15:36;27.00;80.30
39237;DHT22;36851;49.996;8.268;2022-07-18T13:18:04;27.10;80.30
39237;DHT22;36851;49.996;8.268;2022-07-18T13:20:32;27.10;80.30
39237;DHT22;36851;49.996;8.268;2022-07-18T13:22:59;27.10;80.30
39237;DHT22;36851;49.996;8.268;2022-07-18T13:25:31;27.10;80.30
39237;DHT22;36851;49.996;8.268;2022-07-18T13:28:01;27.20;80.30
39237;DHT22;36851;49.996;8.268;2022-07-18T13:30:28;27.20;80.30
39237;DHT22;36851;49.996;8.268;2022-07-18T13:32:56;27.20;80.20
39237;DHT22;36851;49.996;8.268;2022-07-18T13:35:23;27.30;80.30
39237;DHT22;36851;49.996;8.268;2022-07-18T13:37:51;27.30;80.20
39237;DHT22;36851;49.996;8.268;2022-07-18T13:40:18;27.30;80.20
39237;DHT22;36851;49.996;8.268;2022-07-18T13:42:53;27.40;80.20
39237;DHT22;36851;49.996;8.268;2022-07-18T13:45:21;27.40;80.20
39237;DHT22;36851;49.996;8.268;2022-07-18T13:47:48;27.40;80.10
39237;DHT22;36851;49.996;8.268;2022-07-18T13:50:15;27.40;80.10
39237;DHT22;36851;49.996;8.268;2022-07-18T13:52:43;27.50;80.10
39237;DHT22;36851;49.996;8.268;2022-07-18T13:55:10;27.50;80.00
39237;DHT22;36851;49.996;8.268;2022-07-18T13:57:38;27.50;80.00
39237;DHT22;36851;49.996;8.268;2022-07-18T14:00:07;27.60;80.00
39237;DHT22;36851;49.996;8.268;2022-07-18T14:02:36;27.60;79.90
39237;DHT22;36851;49.996;8.268;2022-07-18T14:05:04;27.60;79.80
39237;DHT22;36851;49.996;8.268;2022-07-18T14:07:39;27.70;79.80
39237;DHT22;36851;49.996;8.268;2022-07-18T14:10:07;27.70;79.70
39237;DHT22;36851;49.996;8.268;2022-07-18T14:12:34;27.70;79.60
39237;DHT22;36851;49.996;8.268;2022-07-18T14:15:02;27.80;79.60
39237;DHT22;36851;49.996;8.268;2022-07-18T14:17:29;27.80;79.60
39237;DHT22;36851;49.996;8.268;2022-07-18T14:19:57;27.80;79.50
39237;DHT22;36851;49.996;8.268;2022-07-18T14:22:25;27.90;79.50
39237;DHT22;36851;49.996;8.268;2022-07-18T14:24:52;27.90;79.50
39237;DHT22;36851;49.996;8.268;2022-07-18T14:27:19;27.90;79.40
39237;DHT22;36851;49.996;8.268;2022-07-18T14:29:51;27.90;79.40
39237;DHT22;36851;49.996;8.268;2022-07-18T14:32:18;28.00;79.40
39237;DHT22;36851;49.996;8.268;2022-07-18T14:34:46;28.00;79.40
39237;DHT22;36851;49.996;8.268;2022-07-18T14:37:13;28.00;79.30
39237;DHT22;36851;49.996;8.268;2022-07-18T14:39:40;28.10;79.30
39237;DHT22;36851;49.996;8.268;2022-07-18T14:42:08;28.10;79.20
39237;DHT22;36851;49.996;8.268;2022-07-18T14:44:35;28.10;79.30
39237;DHT22;36851;49.996;8.268;2022-07-18T14:47:03;28.10;79.20
39237;DHT22;36851;49.996;8.268;2022-07-18T14:49:30;28.20;79.10
39237;DHT22;36851;49.996;8.268;2022-07-18T14:51:58;28.20;79.00
39237;DHT22;36851;49.996;8.268;2022-07-18T14:54:28;28.30;79.00
39237;DHT22;36851;49.996;8.268;2022-07-18T14:56:56;28.30;78.90
39237;DHT22;36851;49.996;8.268;2022-07-18T14:59:25;28.30;78.80
39237;DHT22;36851;49.996;8.268;2022-07-18T15:01:52;28.40;78.70
39237;DHT22;36851;49.996;8.268;2022-07-18T15:04:19;28.40;78.70
39237;DHT22;36851;49.996;8.268;2022-07-18T15:06:47;28.50;78.60
39237;DHT22;36851;49.996;8.268;2022-07-18T15:09:14;28.50;78.50
39237;DHT22;36851;49.996;8.268;2022-07-18T15:11:42;28.50;78.40
39237;DHT22;36851;49.996;8.268;2022-07-18T15:14:09;28.50;78.40
39237;DHT22;36851;49.996;8.268;2022-07-18T15:16:37;28.60;78.50
39237;DHT22;36851;49.996;8.268;2022-07-18T15:19:05;28.60;78.40
39237;DHT22;36851;49.996;8.268;2022-07-18T15:21:32;28.70;78.40
39237;DHT22;36851;49.996;8.268;2022-07-18T15:24:00;28.70;78.40
39237;DHT22;36851;49.996;8.268;2022-07-18T15:26:28;28.70;78.30
39237;DHT22;36851;49.996;8.268;2022-07-18T15:28:55;28.70;78.30
39237;DHT22;36851;49.996;8.268;2022-07-18T15:31:22;28.80;78.30
39237;DHT22;36851;49.996;8.268;2022-07-18T15:33:49;28.80;78.30
39237;DHT22;36851;49.996;8.268;2022-07-18T15:36:17;28.80;78.30
39237;DHT22;36851;49.996;8.268;2022-07-18T15:38:44;28.80;78.30
39237;DHT22;36851;49.996;8.268;2022-07-18T15:41:12;28.80;78.20
39237;DHT22;36851;49.996;8.268;2022-07-18T15:43:40;28.80;78.20
39237;DHT22;36851;49.996;8.268;2022-07-18T15:46:09;28.90;78.20
39237;DHT22;36851;49.996;8.268;2022-07-18T15:48:36;28.90;78.20
39237;DHT22;36851;49.996;8.268;2022-07-18T15:51:03;29.00;78.20
39237;DHT22;36851;49.996;8.268;2022-07-18T15:53:34;28.90;78.10
39237;DHT22;36851;49.996;8.268;2022-07-18T15:56:03;29.00;78.10
39237;DHT22;36851;49.996;8.268;2022-07-18T15:58:31;29.00;78.00
39237;DHT22;36851;49.996;8.268;2022-07-18T16:00:58;29.00;78.10
39237;DHT22;36851;49.996;8.268;2022-07-18T16:03:26;29.00;78.10
39237;DHT22;36851;49.996;8.268;2022-07-18T16:05:53;29.00;78.10